createdAt,value
2023-04-28T00:01:51.505Z,8.82
2023-04-28T00:04:18.260Z,7.40
2023-04-28T00:06:45.411Z,6.07
2023-04-28T00:09:11.914Z,7.05
2023-04-28T00:11:38.623Z,12.38
2023-04-28T00:14:05.536Z,7.57
2023-04-28T00:16:32.020Z,7.50
2023-04-28T00:18:58.439Z,8.20
2023-04-28T00:21:24.860Z,6.22
2023-04-28T00:23:51.242Z,7.63
2023-04-28T00:26:17.753Z,6.18
2023-04-28T00:28:44.480Z,6.97
2023-04-28T00:31:12.570Z,7.28
2023-04-28T00:33:42.669Z,7.38
2023-04-28T00:36:10.332Z,8.88
2023-04-28T00:41:03.506Z,6.97
2023-04-28T00:43:29.997Z,6.47
2023-04-28T00:45:56.497Z,8.00
2023-04-28T00:48:24.283Z,9.80
2023-04-28T00:53:17.738Z,7.60
2023-04-28T00:55:46.420Z,7.88
2023-04-28T00:58:12.850Z,7.95
2023-04-28T01:00:39.449Z,6.45
2023-04-28T01:03:06.011Z,6.90
2023-04-28T01:05:33.647Z,11.82
2023-04-28T01:07:59.997Z,10.00
2023-04-28T01:10:26.406Z,8.93
2023-04-28T01:12:52.746Z,7.93
2023-04-28T01:15:21.276Z,6.35
2023-04-28T01:17:48.537Z,7.43
2023-04-28T01:20:15.386Z,6.90
2023-04-28T01:22:41.867Z,7.90
2023-04-28T01:25:08.453Z,6.82
2023-04-28T01:27:34.911Z,6.43
2023-04-28T01:30:01.339Z,7.28
2023-04-28T01:32:27.803Z,7.38
2023-04-28T01:34:54.438Z,7.90
2023-04-28T01:37:20.854Z,9.70
2023-04-28T01:39:47.189Z,8.75
2023-04-28T01:42:13.553Z,6.47
2023-04-28T01:44:41.123Z,5.97
2023-04-28T01:47:07.572Z,8.35
2023-04-28T01:49:34.191Z,9.48
2023-04-28T01:52:00.682Z,8.10
2023-04-28T01:54:27.517Z,8.15
2023-04-28T01:56:53.900Z,9.73
2023-04-28T01:59:20.792Z,8.55
2023-04-28T02:01:47.274Z,10.05
2023-04-28T02:04:13.896Z,7.28
2023-04-28T02:06:40.496Z,6.28
2023-04-28T02:09:07.224Z,6.82
2023-04-28T02:11:33.663Z,7.47
2023-04-28T02:14:00.101Z,7.57
2023-04-28T02:16:26.617Z,7.78
2023-04-28T02:18:53.133Z,8.40
2023-04-28T02:21:19.541Z,8.00
2023-04-28T02:23:46.519Z,7.97
2023-04-28T02:26:12.920Z,7.88
2023-04-28T02:28:39.423Z,11.07
2023-04-28T02:31:10.727Z,7.03
2023-04-28T02:33:38.248Z,8.63
2023-04-28T02:36:06.061Z,7.30
2023-04-28T02:38:32.579Z,12.70
2023-04-28T02:41:08.958Z,9.45
2023-04-28T02:43:37.091Z,7.93
2023-04-28T02:46:04.485Z,6.25
2023-04-28T02:48:31.035Z,7.97
2023-04-28T02:50:57.499Z,6.85
2023-04-28T02:53:23.948Z,7.25
2023-04-28T02:55:50.415Z,6.60
2023-04-28T02:58:18.082Z,7.60
2023-04-28T03:00:45.464Z,6.60
2023-04-28T03:03:12.426Z,8.43
2023-04-28T03:05:39.026Z,13.27
2023-04-28T03:08:06.202Z,11.18
2023-04-28T03:10:32.738Z,9.25
2023-04-28T03:12:59.246Z,7.60
2023-04-28T03:15:25.933Z,13.18
2023-04-28T03:17:52.395Z,8.48
2023-04-28T03:20:18.862Z,7.97
2023-04-28T03:22:45.346Z,8.93
2023-04-28T03:25:11.729Z,8.68
2023-04-28T03:27:38.264Z,9.80
2023-04-28T03:30:06.153Z,7.60
2023-04-28T03:32:32.603Z,9.63
2023-04-28T03:34:58.976Z,6.78
2023-04-28T03:37:25.561Z,8.68
2023-04-28T03:39:52.053Z,7.47
2023-04-28T03:42:18.563Z,7.88
2023-04-28T03:44:45.012Z,9.25
2023-04-28T03:47:11.434Z,8.07
2023-04-28T03:49:37.877Z,10.35
2023-04-28T03:52:04.506Z,8.07
2023-04-28T03:54:31.193Z,8.13
2023-04-28T03:56:58.001Z,8.13
2023-04-28T03:59:24.579Z,7.85
2023-04-28T04:01:51.003Z,10.07
2023-04-28T04:04:18.132Z,12.55
2023-04-28T04:06:45.029Z,8.35
2023-04-28T04:09:11.734Z,8.32
2023-04-28T04:11:38.217Z,8.95
2023-04-28T04:14:04.665Z,8.30
2023-04-28T04:16:31.264Z,9.18
2023-04-28T04:18:57.720Z,10.30
2023-04-28T04:21:24.107Z,8.32
2023-04-28T04:23:50.588Z,8.93
2023-04-28T04:26:17.040Z,8.75
2023-04-28T04:28:43.513Z,9.50
2023-04-28T04:31:10.022Z,10.68
2023-04-28T04:33:37.558Z,8.68
2023-04-28T04:36:04.904Z,12.40
2023-04-28T04:38:31.427Z,8.98
2023-04-28T04:40:57.849Z,10.45
2023-04-28T04:43:24.483Z,8.68
2023-04-28T04:45:51.150Z,10.18
2023-04-28T04:48:18.100Z,10.05
2023-04-28T04:50:44.624Z,9.32
2023-04-28T04:53:14.608Z,8.65
2023-04-28T04:55:41.979Z,12.00
2023-04-28T04:58:08.459Z,8.20
2023-04-28T05:00:35.924Z,11.25
2023-04-28T05:03:04.057Z,9.00
2023-04-28T05:05:30.805Z,8.07
2023-04-28T05:07:57.413Z,8.02
2023-04-28T05:10:24.869Z,7.63
2023-04-28T05:12:51.345Z,7.82
2023-04-28T05:15:17.859Z,11.00
2023-04-28T05:17:44.821Z,9.43
2023-04-28T05:20:12.875Z,11.10
2023-04-28T05:22:39.441Z,10.95
2023-04-28T05:25:06.853Z,9.48
2023-04-28T05:27:33.295Z,9.30
2023-04-28T05:29:59.975Z,8.95
2023-04-28T05:32:26.447Z,10.30
2023-04-28T05:34:52.888Z,10.85
2023-04-28T05:37:19.292Z,8.13
2023-04-28T05:39:46.828Z,7.68
2023-04-28T05:42:13.238Z,8.35
2023-04-28T05:44:41.184Z,7.53
2023-04-28T05:47:09.366Z,12.07
2023-04-28T05:49:35.868Z,6.95
2023-04-28T05:52:02.459Z,8.43
2023-04-28T05:54:28.807Z,10.32
2023-04-28T05:56:55.724Z,12.55
2023-04-28T05:59:22.535Z,9.60
2023-04-28T06:01:50.702Z,12.48
2023-04-28T06:04:17.704Z,9.43
2023-04-28T06:06:44.728Z,11.68
2023-04-28T06:09:11.446Z,12.45
2023-04-28T06:11:37.837Z,12.50
2023-04-28T06:14:04.322Z,11.38
2023-04-28T06:16:30.737Z,12.68
2023-04-28T06:18:57.357Z,11.55
2023-04-28T06:21:24.883Z,10.77
2023-04-28T06:26:18.482Z,11.38
2023-04-28T06:28:45.413Z,12.13
2023-04-28T06:31:12.138Z,12.02
2023-04-28T06:33:38.602Z,10.80
2023-04-28T06:36:05.507Z,11.70
2023-04-28T06:38:32.103Z,11.25
2023-04-28T06:40:58.564Z,13.52
2023-04-28T06:43:25.029Z,11.45
2023-04-28T06:45:51.450Z,10.57
2023-04-28T06:48:17.999Z,10.85
2023-04-28T06:50:44.704Z,11.55
2023-04-28T06:53:11.504Z,12.50
2023-04-28T06:55:37.974Z,9.48
2023-04-28T06:58:04.747Z,8.77
2023-04-28T07:00:31.338Z,9.80
2023-04-28T07:02:57.869Z,10.02
2023-04-28T07:05:24.370Z,9.65
2023-04-28T07:07:50.746Z,10.05
2023-04-28T07:10:17.580Z,11.88
2023-04-28T07:12:44.240Z,9.57
2023-04-28T07:15:11.375Z,9.60
2023-04-28T07:17:38.549Z,8.52
2023-04-28T07:20:07.060Z,8.10
2023-04-28T07:22:33.502Z,10.27
2023-04-28T07:24:59.985Z,8.88
2023-04-28T07:27:26.827Z,11.75
2023-04-28T07:29:53.297Z,9.85
2023-04-28T07:32:20.073Z,9.90
2023-04-28T07:34:46.648Z,10.02
2023-04-28T07:37:13.387Z,9.90
2023-04-28T07:39:40.586Z,16.92
2023-04-28T07:42:07.449Z,10.35
2023-04-28T07:44:34.026Z,11.55
2023-04-28T07:47:01.170Z,10.45
2023-04-28T07:49:31.649Z,9.20
2023-04-28T07:51:58.312Z,9.13
2023-04-28T07:54:25.236Z,8.95
2023-04-28T07:56:52.134Z,7.88
2023-04-28T07:59:18.591Z,11.38
2023-04-28T08:01:44.995Z,9.93
2023-04-28T08:04:11.964Z,8.93
2023-04-28T08:06:40.221Z,9.73
2023-04-28T08:09:06.863Z,8.35
2023-04-28T08:11:34.739Z,8.02
2023-04-28T08:14:03.041Z,8.25
2023-04-28T08:16:31.421Z,7.93
2023-04-28T08:18:58.209Z,10.00
2023-04-28T08:21:24.800Z,7.25
2023-04-28T08:23:51.230Z,7.60
2023-04-28T08:26:17.661Z,9.82
2023-04-28T08:28:44.329Z,8.13
2023-04-28T08:31:11.073Z,8.73
2023-04-28T08:33:37.449Z,10.35
2023-04-28T08:36:05.236Z,10.38
2023-04-28T08:38:31.740Z,8.15
2023-04-28T08:40:58.249Z,7.90
2023-04-28T08:43:25.568Z,8.15
2023-04-28T08:45:52.001Z,8.90
2023-04-28T08:48:20.568Z,6.72
2023-04-28T08:50:52.696Z,6.35
2023-04-28T08:53:25.115Z,6.72
2023-04-28T08:55:54.661Z,6.45
2023-04-28T08:58:23.205Z,6.47
2023-04-28T09:00:50.038Z,7.00
2023-04-28T09:03:16.658Z,5.80
2023-04-28T09:05:43.271Z,5.90
2023-04-28T09:08:11.788Z,5.43
2023-04-28T09:10:38.840Z,6.75
2023-04-28T09:13:05.455Z,4.90
2023-04-28T09:15:37.958Z,5.38
2023-04-28T09:18:06.365Z,6.13
2023-04-28T09:20:34.793Z,4.95
2023-04-28T09:23:21.570Z,5.55
2023-04-28T09:26:07.513Z,6.05
2023-04-28T09:28:36.201Z,5.40
2023-04-28T09:31:03.410Z,14.68
2023-04-28T09:33:30.245Z,4.57
2023-04-28T09:35:56.917Z,4.25
2023-04-28T09:38:23.499Z,3.72
2023-04-28T09:40:51.503Z,5.75
2023-04-28T09:43:38.306Z,4.00
2023-04-28T09:46:06.106Z,5.43
2023-04-28T09:48:38.805Z,5.32
2023-04-28T09:51:07.789Z,4.88
2023-04-28T09:53:35.447Z,3.95
2023-04-28T09:56:05.386Z,3.50
2023-04-28T09:58:35.286Z,4.38
2023-04-28T10:01:01.924Z,3.60
2023-04-28T10:03:30.664Z,2.95
2023-04-28T10:05:58.811Z,3.13
2023-04-28T10:08:27.285Z,3.30
2023-04-28T10:10:54.868Z,3.38
2023-04-28T10:13:23.268Z,2.80
2023-04-28T10:15:51.231Z,2.00
2023-04-28T10:18:18.760Z,3.67
2023-04-28T10:20:48.399Z,3.00
2023-04-28T10:23:33.373Z,4.07
2023-04-28T10:26:00.706Z,1.88
2023-04-28T10:31:13.318Z,2.72
2023-04-28T10:33:40.944Z,2.05
2023-04-28T10:36:08.388Z,1.75
2023-04-28T10:38:36.194Z,4.88
2023-04-28T10:41:03.321Z,1.20
2023-04-28T10:43:30.804Z,2.90
2023-04-28T10:45:59.985Z,3.22
2023-04-28T10:48:26.394Z,1.55
2023-04-28T10:51:05.229Z,0.95
2023-04-28T10:53:47.494Z,0.40
2023-04-28T10:56:25.948Z,0.93
2023-04-28T10:58:57.205Z,1.35
2023-04-28T11:01:29.524Z,2.13
2023-04-28T11:04:13.588Z,0.63
2023-04-28T11:06:42.133Z,0.82
2023-04-28T11:09:14.757Z,1.10
2023-04-28T11:12:01.268Z,0.95
2023-04-28T11:14:35.501Z,1.10
2023-04-28T11:17:07.087Z,0.63
2023-04-28T11:19:35.883Z,2.80
2023-04-28T11:22:04.410Z,0.73
2023-04-28T11:24:31.620Z,0.50
2023-04-28T11:31:58.003Z,0.65
2023-04-28T11:34:25.221Z,0.73
2023-04-28T11:36:54.147Z,0.52
2023-04-28T11:39:29.941Z,0.60
2023-04-28T11:42:00.854Z,0.75
2023-04-28T11:44:29.102Z,0.40
2023-04-28T11:47:01.473Z,0.30
2023-04-28T11:49:33.736Z,0.40
2023-04-28T11:52:07.438Z,1.33
2023-04-28T11:54:34.243Z,0.70
2023-04-28T11:57:04.343Z,2.80
2023-04-28T11:59:33.906Z,0.50
2023-04-28T12:02:05.333Z,0.63
2023-04-28T12:04:36.394Z,0.80
2023-04-28T12:07:10.103Z,0.47
2023-04-28T12:09:38.409Z,0.43
2023-04-28T12:12:07.061Z,0.52
2023-04-28T12:14:54.677Z,1.48
2023-04-28T12:17:32.496Z,0.40
2023-04-28T12:20:04.196Z,0.60
2023-04-28T12:22:31.145Z,0.30
2023-04-28T12:25:11.809Z,0.90
2023-04-28T12:27:40.779Z,0.77
2023-04-28T12:30:26.465Z,0.50
2023-04-28T12:32:56.148Z,0.63
2023-04-28T12:35:25.395Z,2.15
2023-04-28T12:37:55.218Z,0.50
2023-04-28T12:40:22.900Z,0.57
2023-04-28T12:42:49.956Z,0.43
2023-04-28T12:45:16.707Z,0.40
2023-04-28T12:47:43.381Z,0.45
2023-04-28T12:50:10.057Z,0.60
2023-04-28T12:52:37.454Z,0.60
2023-04-28T12:55:04.849Z,0.30
2023-04-28T12:57:31.383Z,1.85
2023-04-28T12:59:57.948Z,0.47
2023-04-28T13:02:24.914Z,2.92
2023-04-28T13:04:53.004Z,0.57
2023-04-28T13:07:19.711Z,1.65
2023-04-28T13:09:47.236Z,1.23
2023-04-28T13:12:14.818Z,1.35
2023-04-28T13:17:08.981Z,1.02
2023-04-28T13:19:35.475Z,0.63
2023-04-28T13:22:05.142Z,0.65
2023-04-28T13:24:33.463Z,0.98
2023-04-28T13:27:03.983Z,0.75
2023-04-28T13:29:30.417Z,0.52
2023-04-28T13:31:56.847Z,1.35
2023-04-28T13:34:23.422Z,2.05
2023-04-28T13:36:51.029Z,2.15
2023-04-28T13:39:20.160Z,1.02
2023-04-28T13:41:46.732Z,1.65
2023-04-28T13:44:13.236Z,0.50
2023-04-28T13:46:39.760Z,0.68
2023-04-28T13:49:06.435Z,0.77
2023-04-28T13:51:33.883Z,1.25
2023-04-28T13:54:00.436Z,1.05
2023-04-28T13:56:27.068Z,0.65
2023-04-28T13:58:53.608Z,0.73
2023-04-28T14:01:20.722Z,2.25
2023-04-28T14:03:47.287Z,2.13
2023-04-28T14:06:13.997Z,1.13
2023-04-28T14:08:40.424Z,1.23
2023-04-28T14:11:07.104Z,1.90
2023-04-28T14:13:33.709Z,1.60
2023-04-28T14:16:01.029Z,1.83
2023-04-28T14:20:54.857Z,1.60
2023-04-28T14:23:22.741Z,1.23
2023-04-28T14:25:50.096Z,1.65
2023-04-28T14:28:16.600Z,1.40
2023-04-28T14:30:43.181Z,2.10
2023-04-28T14:33:09.668Z,1.88
2023-04-28T14:35:36.274Z,2.25
2023-04-28T14:38:03.603Z,3.88
2023-04-28T14:42:56.470Z,4.40
2023-04-28T14:45:23.398Z,3.72
2023-04-28T14:47:50.308Z,3.85
2023-04-28T14:50:16.838Z,4.68
2023-04-28T14:52:43.222Z,4.28
2023-04-28T14:55:10.176Z,5.85
2023-04-28T14:57:37.958Z,3.22
2023-04-28T15:00:07.205Z,2.83
2023-04-28T15:02:34.587Z,4.05
2023-04-28T15:05:01.362Z,5.20
2023-04-28T15:07:31.371Z,2.83
2023-04-28T15:10:01.259Z,2.88
2023-04-28T15:12:30.525Z,1.73
2023-04-28T15:14:57.807Z,4.20
2023-04-28T15:17:24.544Z,2.90
2023-04-28T15:19:51.563Z,2.10
2023-04-28T15:22:22.862Z,4.50
2023-04-28T15:24:51.645Z,2.65
2023-04-28T15:27:18.094Z,3.05
2023-04-28T15:29:44.487Z,3.45
2023-04-28T15:32:10.863Z,3.45
2023-04-28T15:34:37.782Z,2.63
2023-04-28T15:37:27.025Z,3.28
2023-04-28T15:39:53.444Z,3.13
2023-04-28T15:42:19.834Z,3.35
2023-04-28T15:44:46.863Z,3.33
2023-04-28T15:47:13.326Z,5.15
2023-04-28T15:49:40.321Z,7.15
2023-04-28T15:52:06.896Z,4.50
2023-04-28T15:54:33.293Z,3.58
2023-04-28T15:56:59.815Z,3.75
2023-04-28T15:59:26.349Z,3.50
2023-04-28T16:01:52.798Z,4.20
2023-04-28T16:04:19.329Z,5.20
2023-04-28T16:06:45.964Z,5.97
2023-04-28T16:09:12.829Z,7.30
2023-04-28T16:11:41.323Z,5.82
2023-04-28T16:14:08.544Z,7.07
2023-04-28T16:16:35.105Z,4.93
2023-04-28T16:19:01.538Z,4.07
2023-04-28T16:21:28.001Z,2.63
2023-04-28T16:23:54.649Z,6.72
2023-04-28T16:26:21.956Z,4.70
2023-04-28T16:31:15.119Z,5.03
2023-04-28T16:33:41.584Z,5.28
2023-04-28T16:36:08.506Z,5.57
2023-04-28T16:38:35.017Z,5.80
2023-04-28T16:41:01.517Z,6.97
2023-04-28T16:43:28.203Z,5.07
2023-04-28T16:45:54.844Z,5.47
2023-04-28T16:48:21.475Z,6.43
2023-04-28T16:50:48.160Z,4.65
2023-04-28T16:53:14.700Z,4.13
2023-04-28T16:55:41.263Z,5.30
2023-04-28T16:58:07.941Z,6.30
2023-04-28T17:00:34.381Z,4.43
2023-04-28T17:03:01.061Z,3.35
2023-04-28T17:05:27.708Z,4.30
2023-04-28T17:07:55.109Z,5.18
2023-04-28T17:10:22.436Z,5.82
2023-04-28T17:12:48.916Z,4.93
2023-04-28T17:15:19.114Z,5.68
2023-04-28T17:17:50.035Z,6.57
2023-04-28T17:20:19.784Z,5.72
2023-04-28T17:22:47.485Z,5.35
2023-04-28T17:25:14.057Z,4.80
2023-04-28T17:27:40.499Z,4.47
2023-04-28T17:30:11.376Z,5.40
2023-04-28T17:32:38.270Z,4.47
2023-04-28T17:35:05.143Z,4.45
2023-04-28T17:37:32.586Z,5.10
2023-04-28T17:39:59.336Z,4.82
2023-04-28T17:42:25.890Z,5.32
2023-04-28T17:44:52.731Z,5.20
2023-04-28T17:47:19.331Z,7.28
2023-04-28T17:49:45.904Z,4.85
2023-04-28T17:52:12.653Z,5.43
2023-04-28T17:54:39.420Z,6.45
2023-04-28T17:57:05.870Z,5.10
2023-04-28T17:59:32.803Z,4.43
2023-04-28T18:01:59.329Z,5.63
2023-04-28T18:04:26.219Z,5.50
2023-04-28T18:06:52.801Z,5.05
2023-04-28T18:09:19.321Z,5.47
2023-04-28T18:11:45.713Z,4.82
2023-04-28T18:14:12.199Z,5.60
2023-04-28T18:16:38.703Z,10.27
2023-04-28T18:19:05.751Z,6.97
2023-04-28T18:21:32.272Z,5.72
2023-04-28T18:23:59.473Z,5.05
2023-04-28T18:26:26.514Z,5.22
2023-04-28T18:28:52.984Z,5.90
2023-04-28T18:31:19.575Z,9.32
2023-04-28T18:33:46.004Z,6.93
2023-04-28T18:36:12.673Z,8.43
2023-04-28T18:38:39.148Z,6.57
2023-04-28T18:41:17.365Z,13.88
2023-04-28T18:43:44.332Z,8.95
2023-04-28T18:46:10.831Z,7.93
2023-04-28T18:48:37.641Z,6.93
2023-04-28T18:51:05.484Z,8.05
2023-04-28T18:53:32.467Z,6.95
2023-04-28T18:55:58.886Z,12.10
2023-04-28T18:58:25.567Z,8.80
2023-04-28T19:00:52.867Z,8.13
2023-04-28T19:03:20.009Z,12.27
2023-04-28T19:05:46.985Z,9.40
2023-04-28T19:08:13.896Z,10.23
2023-04-28T19:10:41.129Z,8.50
2023-04-28T19:13:08.148Z,7.32
2023-04-28T19:15:34.992Z,7.47
2023-04-28T19:18:02.114Z,11.98
2023-04-28T19:20:28.681Z,8.25
2023-04-28T19:22:55.157Z,11.85
2023-04-28T19:25:21.584Z,11.30
2023-04-28T19:27:48.373Z,11.63
2023-04-28T19:30:15.465Z,8.68
2023-04-28T19:32:42.177Z,10.23
2023-04-28T19:35:09.401Z,8.77
2023-04-28T19:37:36.264Z,11.48
2023-04-28T19:40:07.020Z,15.27
2023-04-28T19:42:34.738Z,12.57
2023-04-28T19:45:01.924Z,12.48
2023-04-28T19:47:30.394Z,10.52
2023-04-28T19:49:56.910Z,12.45
2023-04-28T19:52:23.527Z,10.65
2023-04-28T19:54:50.175Z,14.35
2023-04-28T19:57:17.587Z,20.63
2023-04-28T20:02:10.985Z,13.07
2023-04-28T20:04:38.364Z,22.67
2023-04-28T20:07:05.545Z,16.75
2023-04-28T20:09:35.674Z,16.27
2023-04-28T20:12:04.432Z,17.20
2023-04-28T20:14:31.022Z,22.15
2023-04-28T20:16:58.104Z,25.00
2023-04-28T20:19:24.807Z,21.52
2023-04-28T20:21:51.680Z,21.67
2023-04-28T20:24:18.163Z,20.80
2023-04-28T20:26:44.539Z,19.45
2023-04-28T20:29:10.987Z,16.58
2023-04-28T20:31:37.680Z,19.08
2023-04-28T20:34:04.664Z,22.10
2023-04-28T20:36:33.671Z,19.00
2023-04-28T20:39:00.161Z,11.75
2023-04-28T20:41:26.602Z,13.77
2023-04-28T20:43:54.405Z,9.90
2023-04-28T20:46:21.375Z,11.27
2023-04-28T20:48:48.101Z,9.23
2023-04-28T20:51:14.529Z,11.50
2023-04-28T20:53:40.980Z,12.73
2023-04-28T20:56:08.344Z,14.90
2023-04-28T20:58:35.366Z,11.65
2023-04-28T21:01:02.374Z,12.63
2023-04-28T21:03:30.529Z,13.95
2023-04-28T21:05:57.021Z,18.42
2023-04-28T21:08:23.456Z,16.45
2023-04-28T21:10:49.854Z,13.85
2023-04-28T21:13:16.323Z,11.57
2023-04-28T21:15:42.841Z,18.77
2023-04-28T21:18:09.374Z,24.05
2023-04-28T21:20:35.909Z,17.13
2023-04-28T21:23:02.667Z,14.65
2023-04-28T21:25:29.124Z,23.08
2023-04-28T21:27:55.700Z,17.23
2023-04-28T21:30:22.360Z,21.52
2023-04-28T21:32:49.158Z,12.77
2023-04-28T21:35:16.286Z,13.75
2023-04-28T21:37:42.912Z,14.02
2023-04-28T21:40:10.038Z,11.30
2023-04-28T21:42:36.501Z,13.20
2023-04-28T21:45:03.343Z,10.68
2023-04-28T21:47:30.085Z,10.95
2023-04-28T21:49:56.859Z,13.00
2023-04-28T21:52:23.792Z,10.20
2023-04-28T21:54:50.184Z,15.40
2023-04-28T21:57:16.835Z,17.20
2023-04-28T21:59:43.176Z,13.55
2023-04-28T22:02:09.708Z,11.13
2023-04-28T22:04:36.423Z,9.77
2023-04-28T22:07:03.872Z,8.90
2023-04-28T22:09:31.170Z,16.63
2023-04-28T22:11:57.630Z,11.18
2023-04-28T22:14:39.670Z,10.55
2023-04-28T22:17:07.197Z,9.88
2023-04-28T22:19:33.832Z,8.82
2023-04-28T22:22:00.467Z,9.20
2023-04-28T22:24:27.749Z,8.35
2023-04-28T22:26:54.822Z,9.23
2023-04-28T22:29:21.627Z,8.38
2023-04-28T22:31:48.165Z,8.55
2023-04-28T22:34:14.584Z,7.50
2023-04-28T22:36:41.542Z,8.02
2023-04-28T22:39:08.212Z,7.57
2023-04-28T22:41:34.704Z,7.10
2023-04-28T22:44:01.137Z,7.93
2023-04-28T22:46:28.644Z,6.38
2023-04-28T22:48:55.306Z,8.27
2023-04-28T22:51:21.898Z,7.65
2023-04-28T22:53:48.979Z,6.40
2023-04-28T22:56:15.985Z,8.02
2023-04-28T22:58:42.474Z,8.65
2023-04-28T23:01:09.257Z,7.43
2023-04-28T23:03:36.029Z,7.15
2023-04-28T23:06:02.639Z,7.05
2023-04-28T23:08:29.086Z,6.18
2023-04-28T23:10:58.556Z,9.65
2023-04-28T23:13:25.139Z,9.77
2023-04-28T23:15:51.881Z,6.47
2023-04-28T23:18:18.582Z,5.80
2023-04-28T23:20:48.644Z,6.80
2023-04-28T23:23:15.047Z,7.57
2023-04-28T23:25:42.939Z,7.70
2023-04-28T23:28:10.248Z,6.55
2023-04-28T23:30:36.687Z,9.27
2023-04-28T23:33:03.308Z,7.88
2023-04-28T23:35:29.862Z,7.30
2023-04-28T23:37:56.406Z,6.65
2023-04-28T23:40:22.831Z,7.22
2023-04-28T23:42:49.225Z,8.73
2023-04-28T23:45:15.927Z,8.85
2023-04-28T23:47:42.411Z,7.60
2023-04-28T23:50:09.845Z,6.95
2023-04-28T23:52:40.404Z,6.95
2023-04-28T23:55:10.631Z,8.68
2023-04-28T23:57:37.566Z,7.10
